sensor_id;sensor_type;location;lat;lon;timestamp;temperature;humidity
65396;HTU21D;52004;45.136;39.010;2022-12-13T07:46:24;9.45;71.64
65396;HTU21D;52004;45.136;39.010;2022-12-13T07:48:52;9.46;71.75
65396;HTU21D;52004;45.136;39.010;2022-12-13T07:51:20;9.49;71.77
65396;HTU21D;52004;45.136;39.010;2022-12-13T07:53:46;9.53;71.77
65396;HTU21D;52004;45.136;39.010;2022-12-13T07:56:13;9.55;71.78
65396;HTU21D;52004;45.136;39.010;2022-12-13T07:58:43;9.54;71.74
65396;HTU21D;52004;45.136;39.010;2022-12-13T08:01:11;9.54;71.76
65396;HTU21D;52004;45.136;39.010;2022-12-13T08:03:37;9.53;71.79
65396;HTU21D;52004;45.136;39.010;2022-12-13T08:06:04;9.56;71.81
65396;HTU21D;52004;45.136;39.010;2022-12-13T08:08:31;9.56;71.85
65396;HTU21D;52004;45.136;39.010;2022-12-13T08:11:07;9.60;71.87
65396;HTU21D;52004;45.136;39.010;2022-12-13T08:13:34;9.60;71.92
65396;HTU21D;52004;45.136;39.010;2022-12-13T08:16:01;9.61;72.02
65396;HTU21D;52004;45.136;39.010;2022-12-13T08:18:27;9.67;72.07
65396;HTU21D;52004;45.136;39.010;2022-12-13T08:20:57;9.71;72.16
65396;HTU21D;52004;45.136;39.010;2022-12-13T08:23:23;9.77;72.19
65396;HTU21D;52004;45.136;39.010;2022-12-13T08:25:50;9.84;72.18
65396;HTU21D;52004;45.136;39.010;2022-12-13T08:28:16;0.00;72.16
65396;HTU21D;52004;45.136;39.010;2022-12-13T08:30:43;9.95;72.09
65396;HTU21D;52004;45.136;39.010;2022-12-13T08:33:09;10.00;72.03
65396;HTU21D;52004;45.136;39.010;2022-12-13T08:35:34;10.04;71.96
65396;HTU21D;52004;45.136;39.010;2022-12-13T08:38:00;0.00;71.90
65396;HTU21D;52004;45.136;39.010;2022-12-13T08:40:27;10.06;71.90
65396;HTU21D;52004;45.136;39.010;2022-12-13T08:42:56;10.04;71.90
65396;HTU21D;52004;45.136;39.010;2022-12-13T08:45:22;10.07;71.96
65396;HTU21D;52004;45.136;39.010;2022-12-13T08:47:52;10.08;72.03
65396;HTU21D;52004;45.136;39.010;2022-12-13T08:50:19;10.11;72.06
65396;HTU21D;52004;45.136;39.010;2022-12-13T08:52:46;10.12;72.09
65396;HTU21D;52004;45.136;39.010;2022-12-13T08:55:17;10.19;72.19
65396;HTU21D;52004;45.136;39.010;2022-12-13T08:57:45;10.33;72.47
65396;HTU21D;52004;45.136;39.010;2022-12-13T09:00:13;0.00;72.69
65396;HTU21D;52004;45.136;39.010;2022-12-13T09:02:41;10.62;72.80
65396;HTU21D;52004;45.136;39.010;2022-12-13T09:05:08;0.00;72.71
65396;HTU21D;52004;45.136;39.010;2022-12-13T09:07:36;10.84;72.51
65396;HTU21D;52004;45.136;39.010;2022-12-13T09:10:10;10.87;72.39
65396;HTU21D;52004;45.136;39.010;2022-12-13T09:12:39;10.87;72.32
65396;HTU21D;52004;45.136;39.010;2022-12-13T09:15:05;10.86;72.25
65396;HTU21D;52004;45.136;39.010;2022-12-13T09:17:31;10.87;72.22
65396;HTU21D;52004;45.136;39.010;2022-12-13T09:19:57;10.86;72.19
65396;HTU21D;52004;45.136;39.010;2022-12-13T09:22:24;10.87;72.14
65396;HTU21D;52004;45.136;39.010;2022-12-13T09:24:49;10.86;72.13
65396;HTU21D;52004;45.136;39.010;2022-12-13T09:27:15;10.84;72.17
65396;HTU21D;52004;45.136;39.010;2022-12-13T09:29:41;10.85;72.18
65396;HTU21D;52004;45.136;39.010;2022-12-13T09:32:08;10.84;72.19
65396;HTU21D;52004;45.136;39.010;2022-12-13T09:34:34;10.86;72.19
65396;HTU21D;52004;45.136;39.010;2022-12-13T09:37:00;10.88;72.19
65396;HTU21D;52004;45.136;39.010;2022-12-13T09:39:26;10.87;72.19
65396;HTU21D;52004;45.136;39.010;2022-12-13T09:41:53;10.87;72.21
65396;HTU21D;52004;45.136;39.010;2022-12-13T09:46:46;10.89;72.22
65396;HTU21D;52004;45.136;39.010;2022-12-13T09:49:17;0.00;72.24
65396;HTU21D;52004;45.136;39.010;2022-12-13T09:51:53;10.93;72.26
65396;HTU21D;52004;45.136;39.010;2022-12-13T09:54:20;10.92;72.40
65396;HTU21D;52004;45.136;39.010;2022-12-13T09:56:47;10.92;72.40
65396;HTU21D;52004;45.136;39.010;2022-12-13T09:59:15;10.96;72.41
65396;HTU21D;52004;45.136;39.010;2022-12-13T10:01:42;11.01;72.41
65396;HTU21D;52004;45.136;39.010;2022-12-13T10:04:10;11.08;72.46
65396;HTU21D;52004;45.136;39.010;2022-12-13T10:06:38;11.14;72.54
65396;HTU21D;52004;45.136;39.010;2022-12-13T10:09:05;11.19;72.55
65396;HTU21D;52004;45.136;39.010;2022-12-13T10:11:31;11.29;73.31
65396;HTU21D;52004;45.136;39.010;2022-12-13T10:14:03;0.00;75.19
65396;HTU21D;52004;45.136;39.010;2022-12-13T10:19:02;0.00;74.19
65396;HTU21D;52004;45.136;39.010;2022-12-13T10:21:37;12.04;73.57
65396;HTU21D;52004;45.136;39.010;2022-12-13T10:24:10;12.03;73.11
65396;HTU21D;52004;45.136;39.010;2022-12-13T10:26:38;11.98;72.93
65396;HTU21D;52004;45.136;39.010;2022-12-13T10:29:04;0.00;73.10
65396;HTU21D;52004;45.136;39.010;2022-12-13T11:41:25;14.49;73.09
65396;HTU21D;52004;45.136;39.010;2022-12-13T11:44:10;14.42;72.50
65396;HTU21D;52004;45.136;39.010;2022-12-13T11:46:40;14.39;72.67
65396;HTU21D;52004;45.136;39.010;2022-12-13T11:49:14;14.48;73.47
65396;HTU21D;52004;45.136;39.010;2022-12-13T11:51:45;14.58;73.40
65396;HTU21D;52004;45.136;39.010;2022-12-13T11:54:21;14.67;73.34
65396;HTU21D;52004;45.136;39.010;2022-12-13T11:56:48;14.74;73.45
65396;HTU21D;52004;45.136;39.010;2022-12-13T12:04:20;15.08;73.54
65396;HTU21D;52004;45.136;39.010;2022-12-13T12:06:58;15.11;72.83
65396;HTU21D;52004;45.136;39.010;2022-12-13T12:09:28;14.98;71.86
65396;HTU21D;52004;45.136;39.010;2022-12-13T12:12:36;14.78;71.48
65396;HTU21D;52004;45.136;39.010;2022-12-13T12:17:13;14.24;71.00
65396;HTU21D;52004;45.136;39.010;2022-12-13T12:19:42;0.00;71.03
65396;HTU21D;52004;45.136;39.010;2022-12-13T12:25:02;13.56;71.15
65396;HTU21D;52004;45.136;39.010;2022-12-13T12:27:41;13.38;71.15
65396;HTU21D;52004;45.136;39.010;2022-12-13T12:45:27;12.85;71.18
65396;HTU21D;52004;45.136;39.010;2022-12-13T12:48:07;12.78;71.22
65396;HTU21D;52004;45.136;39.010;2022-12-13T12:50:46;12.70;71.30
65396;HTU21D;52004;45.136;39.010;2022-12-13T12:55:49;12.52;71.48
65396;HTU21D;52004;45.136;39.010;2022-12-13T13:03:26;12.37;71.57
65396;HTU21D;52004;45.136;39.010;2022-12-13T13:08:27;12.31;71.55
65396;HTU21D;52004;45.136;39.010;2022-12-13T13:10:55;12.29;71.51
65396;HTU21D;52004;45.136;39.010;2022-12-13T13:16:26;12.20;71.53
65396;HTU21D;52004;45.136;39.010;2022-12-13T13:18:53;12.18;71.56
65396;HTU21D;52004;45.136;39.010;2022-12-13T13:21:23;12.14;71.56
65396;HTU21D;52004;45.136;39.010;2022-12-13T13:32:29;12.05;71.51
65396;HTU21D;52004;45.136;39.010;2022-12-13T13:34:34;12.03;71.52
65396;HTU21D;52004;45.136;39.010;2022-12-13T13:37:02;12.01;71.53
65396;HTU21D;52004;45.136;39.010;2022-12-13T13:47:15;11.89;71.61
65396;HTU21D;52004;45.136;39.010;2022-12-13T13:52:28;11.83;71.66
65396;HTU21D;52004;45.136;39.010;2022-12-13T13:55:13;11.81;71.70
65396;HTU21D;52004;45.136;39.010;2022-12-13T14:29:23;0.00;71.97
65396;HTU21D;52004;45.136;39.010;2022-12-13T14:31:51;11.46;71.95
65396;HTU21D;52004;45.136;39.010;2022-12-13T14:36:48;11.43;71.96
65396;HTU21D;52004;45.136;39.010;2022-12-13T14:39:18;11.42;71.97
65396;HTU21D;52004;45.136;39.010;2022-12-13T14:41:49;11.41;71.99
65396;HTU21D;52004;45.136;39.010;2022-12-13T14:44:15;0.00;72.01
65396;HTU21D;52004;45.136;39.010;2022-12-13T14:46:49;11.37;72.10
65396;HTU21D;52004;45.136;39.010;2022-12-13T14:49:15;11.34;72.12
65396;HTU21D;52004;45.136;39.010;2022-12-13T14:51:41;11.33;72.13
65396;HTU21D;52004;45.136;39.010;2022-12-13T14:54:07;11.31;72.25
65396;HTU21D;52004;45.136;39.010;2022-12-13T14:56:54;11.27;72.35
65396;HTU21D;52004;45.136;39.010;2022-12-13T14:59:20;11.25;72.41
65396;HTU21D;52004;45.136;39.010;2022-12-13T15:01:53;11.23;72.45
65396;HTU21D;52004;45.136;39.010;2022-12-13T15:06:57;11.17;72.60
65396;HTU21D;52004;45.136;39.010;2022-12-13T15:09:24;0.00;72.60
65396;HTU21D;52004;45.136;39.010;2022-12-13T15:11:52;11.13;72.64
65396;HTU21D;52004;45.136;39.010;2022-12-13T15:14:18;11.12;72.60
65396;HTU21D;52004;45.136;39.010;2022-12-13T15:16:47;11.12;72.54
65396;HTU21D;52004;45.136;39.010;2022-12-13T15:19:19;11.13;72.48
65396;HTU21D;52004;45.136;39.010;2022-12-13T15:21:56;11.12;72.45
65396;HTU21D;52004;45.136;39.010;2022-12-13T15:24:34;0.00;72.44
65396;HTU21D;52004;45.136;39.010;2022-12-13T15:27:02;11.12;72.43
65396;HTU21D;52004;45.136;39.010;2022-12-13T15:29:29;11.15;72.40
65396;HTU21D;52004;45.136;39.010;2022-12-13T15:31:56;11.15;72.36
65396;HTU21D;52004;45.136;39.010;2022-12-13T15:36:54;11.16;72.32
65396;HTU21D;52004;45.136;39.010;2022-12-13T15:39:22;11.14;72.36
65396;HTU21D;52004;45.136;39.010;2022-12-13T15:41:49;11.12;72.39
65396;HTU21D;52004;45.136;39.010;2022-12-13T15:44:19;11.10;72.45
65396;HTU21D;52004;45.136;39.010;2022-12-13T15:46:48;11.07;72.54
65396;HTU21D;52004;45.136;39.010;2022-12-13T15:52:44;11.04;72.64
65396;HTU21D;52004;45.136;39.010;2022-12-13T15:57:24;11.02;72.73
65396;HTU21D;52004;45.136;39.010;2022-12-13T16:00:36;11.03;72.74
65396;HTU21D;52004;45.136;39.010;2022-12-13T16:02:50;11.03;72.75
65396;HTU21D;52004;45.136;39.010;2022-12-13T16:05:28;11.02;72.80
65396;HTU21D;52004;45.136;39.010;2022-12-13T16:07:55;11.02;72.80
65396;HTU21D;52004;45.136;39.010;2022-12-13T16:10:21;11.04;72.77
65396;HTU21D;52004;45.136;39.010;2022-12-13T16:12:49;11.05;72.79
65396;HTU21D;52004;45.136;39.010;2022-12-13T16:15:17;11.04;72.80
65396;HTU21D;52004;45.136;39.010;2022-12-13T16:17:43;11.07;72.86
65396;HTU21D;52004;45.136;39.010;2022-12-13T16:20:11;11.07;72.87
65396;HTU21D;52004;45.136;39.010;2022-12-13T16:22:39;11.08;72.86
65396;HTU21D;52004;45.136;39.010;2022-12-13T16:25:05;11.11;72.83
65396;HTU21D;52004;45.136;39.010;2022-12-13T16:27:31;11.12;72.83
65396;HTU21D;52004;45.136;39.010;2022-12-13T16:29:57;11.15;72.79
65396;HTU21D;52004;45.136;39.010;2022-12-13T16:32:23;11.18;72.83
65396;HTU21D;52004;45.136;39.010;2022-12-13T16:34:49;11.26;72.90
65396;HTU21D;52004;45.136;39.010;2022-12-13T16:37:16;11.39;72.99
65396;HTU21D;52004;45.136;39.010;2022-12-13T16:39:42;11.49;73.09
65396;HTU21D;52004;45.136;39.010;2022-12-13T16:42:07;11.62;73.01
65396;HTU21D;52004;45.136;39.010;2022-12-13T16:44:35;11.74;73.03
65396;HTU21D;52004;45.136;39.010;2022-12-13T16:47:01;11.87;73.03
65396;HTU21D;52004;45.136;39.010;2022-12-13T16:49:27;12.00;72.95
65396;HTU21D;52004;45.136;39.010;2022-12-13T16:51:54;0.00;72.90
65396;HTU21D;52004;45.136;39.010;2022-12-13T16:54:20;12.18;72.85
65396;HTU21D;52004;45.136;39.010;2022-12-13T16:56:48;12.26;72.86
65396;HTU21D;52004;45.136;39.010;2022-12-13T16:59:15;12.31;72.82
65396;HTU21D;52004;45.136;39.010;2022-12-13T17:01:42;12.38;72.80
65396;HTU21D;52004;45.136;39.010;2022-12-13T17:04:10;0.00;72.87
65396;HTU21D;52004;45.136;39.010;2022-12-13T17:06:37;12.52;72.87
65396;HTU21D;52004;45.136;39.010;2022-12-13T17:09:03;0.00;72.84
65396;HTU21D;52004;45.136;39.010;2022-12-13T17:11:32;12.63;72.80
65396;HTU21D;52004;45.136;39.010;2022-12-13T17:13:59;12.65;72.74
65396;HTU21D;52004;45.136;39.010;2022-12-13T17:16:25;12.67;72.71
65396;HTU21D;52004;45.136;39.010;2022-12-13T17:18:51;12.70;72.74
65396;HTU21D;52004;45.136;39.010;2022-12-13T17:21:17;12.72;72.71
65396;HTU21D;52004;45.136;39.010;2022-12-13T17:23:43;12.72;72.80
65396;HTU21D;52004;45.136;39.010;2022-12-13T17:26:10;12.71;72.74
65396;HTU21D;52004;45.136;39.010;2022-12-13T17:28:36;12.71;72.80
65396;HTU21D;52004;45.136;39.010;2022-12-13T17:31:04;12.70;72.87
65396;HTU21D;52004;45.136;39.010;2022-12-13T17:33:30;12.66;72.86
65396;HTU21D;52004;45.136;39.010;2022-12-13T17:35:56;12.64;72.97
65396;HTU21D;52004;45.136;39.010;2022-12-13T17:38:22;12.62;72.96
65396;HTU21D;52004;45.136;39.010;2022-12-13T17:40:52;12.63;73.00
65396;HTU21D;52004;45.136;39.010;2022-12-13T17:43:19;12.38;72.22
65396;HTU21D;52004;45.136;39.010;2022-12-13T17:45:45;12.05;72.19
65396;HTU21D;52004;45.136;39.010;2022-12-13T17:48:12;11.71;72.35
65396;HTU21D;52004;45.136;39.010;2022-12-13T17:50:38;11.37;72.58
65396;HTU21D;52004;45.136;39.010;2022-12-13T17:53:04;11.09;72.89
65396;HTU21D;52004;45.136;39.010;2022-12-13T17:55:30;10.82;73.05
65396;HTU21D;52004;45.136;39.010;2022-12-13T17:57:56;10.59;73.28
65396;HTU21D;52004;45.136;39.010;2022-12-13T18:00:22;10.42;73.45
65396;HTU21D;52004;45.136;39.010;2022-12-13T18:02:48;10.27;73.54
65396;HTU21D;52004;45.136;39.010;2022-12-13T18:05:14;10.16;73.57
65396;HTU21D;52004;45.136;39.010;2022-12-13T18:07:40;10.09;73.59
65396;HTU21D;52004;45.136;39.010;2022-12-13T18:10:06;0.00;73.57
65396;HTU21D;52004;45.136;39.010;2022-12-13T18:12:32;9.92;73.57
65396;HTU21D;52004;45.136;39.010;2022-12-13T18:14:58;9.85;73.62
65396;HTU21D;52004;45.136;39.010;2022-12-13T18:17:24;0.00;73.62
65396;HTU21D;52004;45.136;39.010;2022-12-13T18:19:50;9.75;73.61
65396;HTU21D;52004;45.136;39.010;2022-12-13T18:22:16;9.70;73.57
65396;HTU21D;52004;45.136;39.010;2022-12-13T18:24:42;9.63;73.56
65396;HTU21D;52004;45.136;39.010;2022-12-13T18:27:08;9.59;73.60
65396;HTU21D;52004;45.136;39.010;2022-12-13T18:29:34;9.53;73.61
65396;HTU21D;52004;45.136;39.010;2022-12-13T18:32:00;9.53;73.59
65396;HTU21D;52004;45.136;39.010;2022-12-13T18:34:26;9.52;73.57
65396;HTU21D;52004;45.136;39.010;2022-12-13T18:36:52;9.51;73.51
65396;HTU21D;52004;45.136;39.010;2022-12-13T18:39:18;9.51;73.48
65396;HTU21D;52004;45.136;39.010;2022-12-13T18:41:44;9.50;73.49
65396;HTU21D;52004;45.136;39.010;2022-12-13T18:44:10;9.49;73.39
65396;HTU21D;52004;45.136;39.010;2022-12-13T18:46:38;0.00;73.41
65396;HTU21D;52004;45.136;39.010;2022-12-13T18:49:04;9.44;73.39
65396;HTU21D;52004;45.136;39.010;2022-12-13T18:51:31;0.00;73.40
65396;HTU21D;52004;45.136;39.010;2022-12-13T18:53:57;9.41;73.42
65396;HTU21D;52004;45.136;39.010;2022-12-13T18:56:25;9.39;73.44
65396;HTU21D;52004;45.136;39.010;2022-12-13T18:58:51;9.38;73.44
65396;HTU21D;52004;45.136;39.010;2022-12-13T19:01:17;9.36;73.41
65396;HTU21D;52004;45.136;39.010;2022-12-13T19:03:44;0.00;73.42
65396;HTU21D;52004;45.136;39.010;2022-12-13T19:06:17;9.31;73.44
65396;HTU21D;52004;45.136;39.010;2022-12-13T19:08:47;9.26;73.44
65396;HTU21D;52004;45.136;39.010;2022-12-13T19:11:13;9.24;73.47
65396;HTU21D;52004;45.136;39.010;2022-12-13T19:13:39;9.25;73.44
65396;HTU21D;52004;45.136;39.010;2022-12-13T19:16:07;9.21;73.39
65396;HTU21D;52004;45.136;39.010;2022-12-13T19:18:33;9.21;73.43
65396;HTU21D;52004;45.136;39.010;2022-12-13T19:21:00;9.20;73.42
65396;HTU21D;52004;45.136;39.010;2022-12-13T19:23:26;9.17;73.40
65396;HTU21D;52004;45.136;39.010;2022-12-13T19:25:52;9.16;73.44
65396;HTU21D;52004;45.136;39.010;2022-12-13T19:28:18;9.14;73.42
65396;HTU21D;52004;45.136;39.010;2022-12-13T19:30:44;9.11;73.43
65396;HTU21D;52004;45.136;39.010;2022-12-13T19:33:10;9.10;73.41
65396;HTU21D;52004;45.136;39.010;2022-12-13T19:35:36;9.04;73.39
65396;HTU21D;52004;45.136;39.010;2022-12-13T19:38:02;8.95;73.46
65396;HTU21D;52004;45.136;39.010;2022-12-13T19:40:28;8.89;73.47
65396;HTU21D;52004;45.136;39.010;2022-12-13T19:42:54;8.81;73.44
65396;HTU21D;52004;45.136;39.010;2022-12-13T19:45:20;8.73;73.43
65396;HTU21D;52004;45.136;39.010;2022-12-13T19:47:46;8.65;73.43
65396;HTU21D;52004;45.136;39.010;2022-12-13T19:50:12;8.56;73.52
65396;HTU21D;52004;45.136;39.010;2022-12-13T19:52:38;0.00;73.48
65396;HTU21D;52004;45.136;39.010;2022-12-13T19:55:04;8.43;73.53
65396;HTU21D;52004;45.136;39.010;2022-12-13T19:57:31;8.37;73.46
65396;HTU21D;52004;45.136;39.010;2022-12-13T19:59:57;8.29;73.41
65396;HTU21D;52004;45.136;39.010;2022-12-13T20:02:24;8.18;73.49
65396;HTU21D;52004;45.136;39.010;2022-12-13T20:04:49;8.09;73.60
65396;HTU21D;52004;45.136;39.010;2022-12-13T20:07:16;8.01;73.66
65396;HTU21D;52004;45.136;39.010;2022-12-13T20:09:42;7.96;73.68
65396;HTU21D;52004;45.136;39.010;2022-12-13T20:12:08;7.92;73.64
65396;HTU21D;52004;45.136;39.010;2022-12-13T20:14:34;7.89;73.64
65396;HTU21D;52004;45.136;39.010;2022-12-13T20:17:00;7.86;73.60
65396;HTU21D;52004;45.136;39.010;2022-12-13T20:19:26;7.79;73.59
65396;HTU21D;52004;45.136;39.010;2022-12-13T20:21:52;7.71;73.56
65396;HTU21D;52004;45.136;39.010;2022-12-13T20:24:19;7.63;73.63
65396;HTU21D;52004;45.136;39.010;2022-12-13T20:26:44;7.53;73.76
65396;HTU21D;52004;45.136;39.010;2022-12-13T20:29:10;7.49;73.79
65396;HTU21D;52004;45.136;39.010;2022-12-13T20:31:38;7.41;73.83
65396;HTU21D;52004;45.136;39.010;2022-12-13T20:34:05;7.39;73.87
65396;HTU21D;52004;45.136;39.010;2022-12-13T20:36:35;7.35;73.86
65396;HTU21D;52004;45.136;39.010;2022-12-13T20:39:03;7.33;73.93
65396;HTU21D;52004;45.136;39.010;2022-12-13T20:41:30;7.30;73.90
65396;HTU21D;52004;45.136;39.010;2022-12-13T20:43:56;7.29;73.89
65396;HTU21D;52004;45.136;39.010;2022-12-13T20:46:23;7.25;73.86
65396;HTU21D;52004;45.136;39.010;2022-12-13T20:48:49;7.24;73.91
65396;HTU21D;52004;45.136;39.010;2022-12-13T20:51:17;7.24;73.85
65396;HTU21D;52004;45.136;39.010;2022-12-13T20:53:44;7.22;73.83
65396;HTU21D;52004;45.136;39.010;2022-12-13T20:56:11;7.23;73.86
65396;HTU21D;52004;45.136;39.010;2022-12-13T20:58:38;7.24;73.80
65396;HTU21D;52004;45.136;39.010;2022-12-13T21:01:04;7.24;73.73
65396;HTU21D;52004;45.136;39.010;2022-12-13T21:03:31;7.24;73.71
65396;HTU21D;52004;45.136;39.010;2022-12-13T21:05:57;7.25;73.64
65396;HTU21D;52004;45.136;39.010;2022-12-13T21:08:23;7.26;73.58
65396;HTU21D;52004;45.136;39.010;2022-12-13T21:11:07;7.23;73.51
65396;HTU21D;52004;45.136;39.010;2022-12-13T21:13:53;7.17;73.60
65396;HTU21D;52004;45.136;39.010;2022-12-13T21:16:19;7.14;73.61
65396;HTU21D;52004;45.136;39.010;2022-12-13T21:18:46;7.11;73.57
65396;HTU21D;52004;45.136;39.010;2022-12-13T21:21:12;7.08;73.59
65396;HTU21D;52004;45.136;39.010;2022-12-13T21:23:38;6.99;73.64
65396;HTU21D;52004;45.136;39.010;2022-12-13T21:26:03;6.97;73.69
65396;HTU21D;52004;45.136;39.010;2022-12-13T21:28:30;6.94;73.68
65396;HTU21D;52004;45.136;39.010;2022-12-13T21:30:56;6.88;73.68
65396;HTU21D;52004;45.136;39.010;2022-12-13T21:33:22;6.86;73.70
65396;HTU21D;52004;45.136;39.010;2022-12-13T21:35:48;6.83;73.72
65396;HTU21D;52004;45.136;39.010;2022-12-13T21:38:14;6.79;73.70
65396;HTU21D;52004;45.136;39.010;2022-12-13T21:40:46;6.74;73.75
65396;HTU21D;52004;45.136;39.010;2022-12-13T21:43:13;6.72;73.79
65396;HTU21D;52004;45.136;39.010;2022-12-13T21:45:39;6.69;73.74
65396;HTU21D;52004;45.136;39.010;2022-12-13T21:48:06;6.66;73.74
65396;HTU21D;52004;45.136;39.010;2022-12-13T21:50:32;6.63;73.78
65396;HTU21D;52004;45.136;39.010;2022-12-13T21:52:58;6.59;73.80
65396;HTU21D;52004;45.136;39.010;2022-12-13T21:55:24;6.57;73.83
65396;HTU21D;52004;45.136;39.010;2022-12-13T21:57:50;6.56;73.85
65396;HTU21D;52004;45.136;39.010;2022-12-13T22:00:45;6.56;73.79
65396;HTU21D;52004;45.136;39.010;2022-12-13T22:03:11;6.52;73.77
65396;HTU21D;52004;45.136;39.010;2022-12-13T22:05:37;6.45;73.86
65396;HTU21D;52004;45.136;39.010;2022-12-13T22:08:03;6.41;73.89
65396;HTU21D;52004;45.136;39.010;2022-12-13T22:10:29;6.37;73.90
65396;HTU21D;52004;45.136;39.010;2022-12-13T22:12:54;6.33;73.90
65396;HTU21D;52004;45.136;39.010;2022-12-13T22:15:21;6.26;73.89
65396;HTU21D;52004;45.136;39.010;2022-12-13T22:17:47;6.20;73.95
65396;HTU21D;52004;45.136;39.010;2022-12-13T22:20:13;6.14;73.91
65396;HTU21D;52004;45.136;39.010;2022-12-13T22:22:40;6.05;73.88
65396;HTU21D;52004;45.136;39.010;2022-12-13T22:25:06;5.98;73.87
65396;HTU21D;52004;45.136;39.010;2022-12-13T22:27:33;5.85;73.90
65396;HTU21D;52004;45.136;39.010;2022-12-13T22:29:59;5.76;73.99
65396;HTU21D;52004;45.136;39.010;2022-12-13T22:32:26;5.69;74.08
65396;HTU21D;52004;45.136;39.010;2022-12-13T22:34:52;5.66;74.09
65396;HTU21D;52004;45.136;39.010;2022-12-13T22:37:18;5.56;74.07
65396;HTU21D;52004;45.136;39.010;2022-12-13T22:39:44;5.48;74.05
65396;HTU21D;52004;45.136;39.010;2022-12-13T22:42:10;5.39;74.04
65396;HTU21D;52004;45.136;39.010;2022-12-13T22:44:36;5.26;74.04
65396;HTU21D;52004;45.136;39.010;2022-12-13T22:47:02;5.19;74.06
65396;HTU21D;52004;45.136;39.010;2022-12-13T22:49:28;5.11;74.08
65396;HTU21D;52004;45.136;39.010;2022-12-13T22:51:53;5.04;74.08
65396;HTU21D;52004;45.136;39.010;2022-12-13T22:54:20;5.00;74.09
65396;HTU21D;52004;45.136;39.010;2022-12-13T22:56:47;5.00;74.12
65396;HTU21D;52004;45.136;39.010;2022-12-13T22:59:13;5.01;74.05
65396;HTU21D;52004;45.136;39.010;2022-12-13T23:01:39;5.02;73.98
65396;HTU21D;52004;45.136;39.010;2022-12-13T23:04:06;4.95;73.83
65396;HTU21D;52004;45.136;39.010;2022-12-13T23:06:34;4.89;73.82
65396;HTU21D;52004;45.136;39.010;2022-12-13T23:09:00;4.84;73.76
65396;HTU21D;52004;45.136;39.010;2022-12-13T23:11:27;4.80;73.83
65396;HTU21D;52004;45.136;39.010;2022-12-13T23:14:12;4.78;73.90
65396;HTU21D;52004;45.136;39.010;2022-12-13T23:16:39;4.79;73.83
65396;HTU21D;52004;45.136;39.010;2022-12-13T23:19:05;4.80;73.76
65396;HTU21D;52004;45.136;39.010;2022-12-13T23:21:31;4.79;73.70
65396;HTU21D;52004;45.136;39.010;2022-12-13T23:23:57;4.79;73.69
65396;HTU21D;52004;45.136;39.010;2022-12-13T23:26:25;4.76;73.66
65396;HTU21D;52004;45.136;39.010;2022-12-13T23:28:53;4.75;73.60
65396;HTU21D;52004;45.136;39.010;2022-12-13T23:31:19;4.71;73.59
65396;HTU21D;52004;45.136;39.010;2022-12-13T23:33:45;4.68;73.64
65396;HTU21D;52004;45.136;39.010;2022-12-13T23:36:13;4.69;73.67
65396;HTU21D;52004;45.136;39.010;2022-12-13T23:38:39;4.69;73.73
65396;HTU21D;52004;45.136;39.010;2022-12-13T23:43:31;4.78;73.65
65396;HTU21D;52004;45.136;39.010;2022-12-13T23:45:58;4.80;73.60
65396;HTU21D;52004;45.136;39.010;2022-12-13T23:48:24;4.81;73.56
65396;HTU21D;52004;45.136;39.010;2022-12-13T23:50:51;4.86;73.58
65396;HTU21D;52004;45.136;39.010;2022-12-13T23:53:17;4.89;73.53
65396;HTU21D;52004;45.136;39.010;2022-12-13T23:55:43;4.93;73.42
65396;HTU21D;52004;45.136;39.010;2022-12-13T23:58:09;4.92;73.35
